createdAt,value
2018-08-16T00:01:17.385Z,5.13
2018-08-16T00:03:45.694Z,5.10
2018-08-16T00:06:13.958Z,5.03
2018-08-16T00:08:42.200Z,5.07
2018-08-16T00:11:10.538Z,6.20
2018-08-16T00:13:40.262Z,5.77
2018-08-16T00:16:08.728Z,5.40
2018-08-16T00:18:37.087Z,5.40
2018-08-16T00:21:05.535Z,5.50
2018-08-16T00:23:33.782Z,5.73
2018-08-16T00:26:01.970Z,5.70
2018-08-16T00:28:30.337Z,5.30
2018-08-16T00:30:58.763Z,4.97
2018-08-16T00:33:27.093Z,5.17
2018-08-16T00:35:55.455Z,5.77
2018-08-16T00:38:23.615Z,6.10
2018-08-16T00:40:51.828Z,6.23
2018-08-16T00:43:20.132Z,6.17
2018-08-16T00:45:48.434Z,5.07
2018-08-16T00:48:16.696Z,5.30
2018-08-16T00:50:44.923Z,5.17
2018-08-16T00:53:13.417Z,5.33
2018-08-16T00:55:41.706Z,5.23
2018-08-16T00:58:09.960Z,5.23
2018-08-16T01:00:38.168Z,5.27
2018-08-16T01:03:06.621Z,4.57
2018-08-16T01:05:35.517Z,5.00
2018-08-16T01:08:03.780Z,5.10
2018-08-16T01:10:32.029Z,4.67
2018-08-16T01:13:00.496Z,4.70
2018-08-16T01:15:28.717Z,5.20
2018-08-16T01:17:56.919Z,5.53
2018-08-16T01:20:25.311Z,5.47
2018-08-16T01:22:53.539Z,4.80
2018-08-16T01:25:22.895Z,5.03
2018-08-16T01:27:51.129Z,5.17
2018-08-16T01:30:19.463Z,4.70
2018-08-16T01:32:47.977Z,4.60
2018-08-16T01:35:16.318Z,5.00
2018-08-16T01:37:44.596Z,4.83
2018-08-16T01:40:13.236Z,4.60
2018-08-16T01:42:41.385Z,4.60
2018-08-16T01:45:10.661Z,5.07
2018-08-16T01:47:39.221Z,4.80
2018-08-16T01:50:07.758Z,4.57
2018-08-16T01:52:36.037Z,5.40
2018-08-16T01:55:04.927Z,5.20
2018-08-16T01:57:33.313Z,6.10
2018-08-16T02:00:01.583Z,5.63
2018-08-16T02:02:29.861Z,5.80
2018-08-16T02:04:58.422Z,6.50
2018-08-16T02:07:26.691Z,6.80
2018-08-16T02:09:55.585Z,7.67
2018-08-16T02:12:23.841Z,7.50
2018-08-16T02:14:52.220Z,7.57
2018-08-16T02:17:20.665Z,7.70
2018-08-16T02:19:48.935Z,7.00
2018-08-16T02:22:17.341Z,6.57
2018-08-16T02:24:45.883Z,5.67
2018-08-16T02:27:14.326Z,5.57
2018-08-16T02:29:42.565Z,5.20
2018-08-16T02:32:11.648Z,5.30
2018-08-16T02:34:39.983Z,4.97
2018-08-16T02:37:08.453Z,5.53
2018-08-16T02:39:36.776Z,5.80
2018-08-16T02:42:05.113Z,6.10
2018-08-16T02:44:33.390Z,5.70
2018-08-16T02:47:01.622Z,5.80
2018-08-16T02:49:30.014Z,5.30
2018-08-16T02:51:58.867Z,5.67
2018-08-16T02:54:27.286Z,4.90
2018-08-16T02:56:55.627Z,5.20
2018-08-16T02:59:24.144Z,5.50
2018-08-16T03:01:52.499Z,4.97
2018-08-16T03:04:20.828Z,5.00
2018-08-16T03:06:49.310Z,4.90
2018-08-16T03:09:17.620Z,5.30
2018-08-16T03:11:45.901Z,4.83
2018-08-16T03:14:14.346Z,5.10
2018-08-16T03:16:42.731Z,5.47
2018-08-16T03:19:11.447Z,5.10
2018-08-16T03:21:42.823Z,4.87
2018-08-16T03:24:11.135Z,5.20
2018-08-16T03:26:39.438Z,4.50
2018-08-16T03:29:07.688Z,5.03
2018-08-16T03:31:36.585Z,5.70
2018-08-16T03:34:04.896Z,5.37
2018-08-16T03:36:33.172Z,5.63
2018-08-16T03:39:01.401Z,4.70
2018-08-16T03:41:29.689Z,5.40
2018-08-16T03:43:58.092Z,5.30
2018-08-16T03:46:26.342Z,4.90
2018-08-16T03:48:54.642Z,4.77
2018-08-16T03:51:22.997Z,5.37
2018-08-16T03:53:51.260Z,6.17
2018-08-16T03:56:20.145Z,6.93
2018-08-16T03:58:48.364Z,10.43
2018-08-16T04:01:16.909Z,18.83
2018-08-16T04:03:45.284Z,16.70
2018-08-16T04:06:13.747Z,20.37
2018-08-16T04:08:42.102Z,19.80
2018-08-16T04:11:10.382Z,15.87
2018-08-16T04:13:38.656Z,16.33
2018-08-16T04:16:06.968Z,18.23
2018-08-16T04:18:35.291Z,32.73
2018-08-16T04:21:03.904Z,32.07
2018-08-16T04:23:32.332Z,21.57
2018-08-16T04:26:00.841Z,17.90
2018-08-16T04:28:29.154Z,14.40
2018-08-16T04:30:57.455Z,15.77
2018-08-16T04:33:25.734Z,17.60
2018-08-16T04:35:54.213Z,12.60
2018-08-16T04:38:22.589Z,12.17
2018-08-16T04:40:50.831Z,12.53
2018-08-16T04:43:19.213Z,12.97
2018-08-16T04:45:47.725Z,10.90
2018-08-16T04:48:16.170Z,9.50
2018-08-16T04:50:44.465Z,8.30
2018-08-16T04:53:12.759Z,9.40
2018-08-16T04:55:41.017Z,8.73
2018-08-16T04:58:09.272Z,8.40
2018-08-16T05:00:38.346Z,10.30
2018-08-16T05:03:06.657Z,8.63
2018-08-16T05:05:34.900Z,10.07
2018-08-16T05:08:03.561Z,11.60
2018-08-16T05:10:31.914Z,9.20
2018-08-16T05:13:00.591Z,9.70
2018-08-16T05:15:28.761Z,8.40
2018-08-16T05:17:57.264Z,9.03
2018-08-16T05:20:25.591Z,8.30
2018-08-16T05:22:53.956Z,8.27
2018-08-16T05:25:22.814Z,8.23
2018-08-16T05:27:51.024Z,8.97
2018-08-16T05:30:19.300Z,9.30
2018-08-16T05:32:47.713Z,9.10
2018-08-16T05:35:15.914Z,8.70
2018-08-16T05:37:44.223Z,8.90
2018-08-16T05:40:12.579Z,9.37
2018-08-16T05:42:40.896Z,9.90
2018-08-16T05:45:09.533Z,8.93
2018-08-16T05:47:38.101Z,8.77
2018-08-16T05:50:08.794Z,8.47
2018-08-16T05:52:37.300Z,8.77
2018-08-16T05:55:05.720Z,7.97
2018-08-16T05:57:33.995Z,8.17
2018-08-16T06:00:02.403Z,7.50
2018-08-16T06:02:30.881Z,7.40
2018-08-16T06:04:59.359Z,7.90
2018-08-16T06:07:27.908Z,7.00
2018-08-16T06:09:56.286Z,7.87
2018-08-16T06:12:24.670Z,7.00
2018-08-16T06:14:52.937Z,7.20
2018-08-16T06:17:21.375Z,7.43
2018-08-16T06:19:49.823Z,6.37
2018-08-16T06:22:18.127Z,6.80
2018-08-16T06:24:46.562Z,7.37
2018-08-16T06:27:14.771Z,7.40
2018-08-16T06:29:43.101Z,9.87
2018-08-16T06:32:11.503Z,8.20
2018-08-16T06:34:39.884Z,8.07
2018-08-16T06:37:08.243Z,7.10
2018-08-16T06:39:36.998Z,6.90
2018-08-16T06:42:05.728Z,7.40
2018-08-16T06:44:34.102Z,6.50
2018-08-16T06:47:02.989Z,6.10
2018-08-16T06:49:31.859Z,6.30
2018-08-16T06:52:00.300Z,6.67
2018-08-16T06:54:29.028Z,5.73
2018-08-16T06:56:57.499Z,6.10
2018-08-16T06:59:25.913Z,5.83
2018-08-16T07:01:54.241Z,6.73
2018-08-16T07:04:22.623Z,5.47
2018-08-16T07:06:51.120Z,5.43
2018-08-16T07:09:19.507Z,5.40
2018-08-16T07:11:47.915Z,5.43
2018-08-16T07:14:16.233Z,5.20
2018-08-16T07:16:44.878Z,6.77
2018-08-16T07:19:13.418Z,6.17
2018-08-16T07:21:41.748Z,5.97
2018-08-16T07:24:10.269Z,5.80
2018-08-16T07:26:38.648Z,5.27
2018-08-16T07:29:07.492Z,4.70
2018-08-16T07:31:36.000Z,4.83
2018-08-16T07:34:04.477Z,4.37
2018-08-16T07:36:33.051Z,4.70
2018-08-16T07:39:01.500Z,4.07
2018-08-16T07:41:29.768Z,4.70
2018-08-16T07:43:58.170Z,4.50
2018-08-16T07:46:26.726Z,4.80
2018-08-16T07:48:55.294Z,4.70
2018-08-16T07:51:23.838Z,4.50
2018-08-16T07:53:52.332Z,4.50
2018-08-16T07:56:20.619Z,5.23
2018-08-16T07:58:49.066Z,4.90
2018-08-16T08:01:17.470Z,5.43
2018-08-16T08:03:45.873Z,4.90
2018-08-16T08:06:14.156Z,4.83
2018-08-16T08:08:42.505Z,4.23
2018-08-16T08:11:10.934Z,5.20
2018-08-16T08:13:39.262Z,4.70
2018-08-16T08:16:07.655Z,4.20
2018-08-16T08:18:36.022Z,5.77
2018-08-16T08:21:04.419Z,4.73
2018-08-16T08:23:32.935Z,4.07
2018-08-16T08:26:01.297Z,3.93
2018-08-16T08:28:29.806Z,10.83
2018-08-16T08:30:58.241Z,16.33
2018-08-16T08:33:26.560Z,6.00
2018-08-16T08:36:06.238Z,5.10
2018-08-16T08:38:34.640Z,4.80
2018-08-16T08:41:03.011Z,4.40
2018-08-16T08:43:42.707Z,4.10
2018-08-16T08:46:10.989Z,4.07
2018-08-16T08:48:39.907Z,3.97
2018-08-16T08:51:08.573Z,4.40
2018-08-16T08:54:49.862Z,5.07
2018-08-16T08:57:30.104Z,3.83
2018-08-16T08:59:59.217Z,3.73
2018-08-16T09:02:27.788Z,3.80
2018-08-16T09:04:56.053Z,3.23
2018-08-16T09:07:24.753Z,3.70
2018-08-16T09:11:10.273Z,3.60
2018-08-16T09:13:50.867Z,4.83
2018-08-16T09:16:31.101Z,4.93
2018-08-16T09:18:59.899Z,6.03
2018-08-16T09:21:29.087Z,4.57
2018-08-16T09:23:57.723Z,4.07
2018-08-16T09:26:31.519Z,3.90
2018-08-16T09:28:59.946Z,3.47
2018-08-16T09:31:41.341Z,4.03
2018-08-16T09:34:22.103Z,3.70
2018-08-16T09:36:50.389Z,3.87
2018-08-16T09:39:19.298Z,3.60
2018-08-16T09:41:47.654Z,3.70
2018-08-16T09:44:15.959Z,3.60
2018-08-16T09:46:58.693Z,3.60
2018-08-16T09:49:27.444Z,3.80
2018-08-16T09:51:56.203Z,4.00
2018-08-16T09:54:24.712Z,3.50
2018-08-16T09:56:53.834Z,3.80
2018-08-16T09:59:22.224Z,3.77
2018-08-16T10:01:50.596Z,4.20
2018-08-16T10:04:18.986Z,3.87
2018-08-16T10:06:47.673Z,3.97
2018-08-16T10:09:22.313Z,3.57
2018-08-16T10:11:50.757Z,3.87
2018-08-16T10:14:19.275Z,4.00
2018-08-16T10:16:47.655Z,4.00
2018-08-16T10:19:16.098Z,4.10
2018-08-16T10:21:44.498Z,3.30
2018-08-16T10:24:13.022Z,6.07
2018-08-16T10:26:41.313Z,3.77
2018-08-16T10:29:10.229Z,4.00
2018-08-16T10:31:39.805Z,3.60
2018-08-16T10:34:08.266Z,3.77
2018-08-16T10:36:36.994Z,4.03
2018-08-16T10:39:09.114Z,4.00
2018-08-16T10:41:38.578Z,4.27
2018-08-16T10:44:07.452Z,4.00
2018-08-16T10:46:35.942Z,4.43
2018-08-16T10:49:04.841Z,4.30
2018-08-16T10:51:33.292Z,4.03
2018-08-16T10:54:01.632Z,3.83
2018-08-16T10:56:30.089Z,4.30
2018-08-16T10:58:58.941Z,3.87
2018-08-16T11:01:27.645Z,4.10
2018-08-16T11:03:56.962Z,4.17
2018-08-16T11:06:26.239Z,4.63
2018-08-16T11:08:55.003Z,4.27
2018-08-16T11:11:23.383Z,4.43
2018-08-16T11:13:52.134Z,3.97
2018-08-16T11:16:20.824Z,4.80
2018-08-16T11:18:49.811Z,3.97
2018-08-16T11:21:18.337Z,4.60
2018-08-16T11:23:47.439Z,4.50
2018-08-16T11:26:16.310Z,3.93
2018-08-16T11:28:45.239Z,4.30
2018-08-16T11:31:14.028Z,3.60
2018-08-16T11:33:45.490Z,3.87
2018-08-16T11:36:13.944Z,4.07
2018-08-16T11:38:42.735Z,3.90
2018-08-16T11:41:11.625Z,4.00
2018-08-16T11:43:40.085Z,4.80
2018-08-16T11:46:08.608Z,3.90
2018-08-16T11:48:37.047Z,3.70
2018-08-16T11:51:05.742Z,3.60
2018-08-16T11:53:34.109Z,3.80
2018-08-16T11:56:02.911Z,3.50
2018-08-16T11:58:32.610Z,4.13
2018-08-16T12:01:00.913Z,4.17
2018-08-16T12:03:30.515Z,4.73
2018-08-16T12:05:59.035Z,3.73
2018-08-16T12:08:27.539Z,4.20
2018-08-16T12:10:55.903Z,3.30
2018-08-16T12:13:24.458Z,3.47
2018-08-16T12:15:52.771Z,4.33
2018-08-16T12:18:21.174Z,4.43
2018-08-16T12:20:49.530Z,4.20
2018-08-16T12:23:17.760Z,4.87
2018-08-16T12:25:46.078Z,4.50
2018-08-16T12:28:14.548Z,3.93
2018-08-16T12:30:42.828Z,4.30
2018-08-16T12:33:11.356Z,4.67
2018-08-16T12:35:39.748Z,4.60
2018-08-16T12:38:08.223Z,3.80
2018-08-16T12:40:36.839Z,3.50
2018-08-16T12:43:05.226Z,3.70
2018-08-16T12:45:33.607Z,4.50
2018-08-16T12:48:02.079Z,4.20
2018-08-16T12:50:30.385Z,4.50
2018-08-16T12:52:58.733Z,4.30
2018-08-16T12:55:27.192Z,3.67
2018-08-16T12:57:55.556Z,4.00
2018-08-16T13:00:23.967Z,3.70
2018-08-16T13:02:52.745Z,4.23
2018-08-16T13:05:21.111Z,3.87
2018-08-16T13:07:49.606Z,4.17
2018-08-16T13:10:18.509Z,5.90
2018-08-16T13:12:47.050Z,4.73
2018-08-16T13:15:15.386Z,4.03
2018-08-16T13:17:44.136Z,3.90
2018-08-16T13:20:12.709Z,3.90
2018-08-16T13:22:41.683Z,4.20
2018-08-16T13:25:10.180Z,4.03
2018-08-16T13:27:39.127Z,4.23
2018-08-16T13:30:08.527Z,4.17
2018-08-16T13:32:37.463Z,3.97
2018-08-16T13:35:06.275Z,4.00
2018-08-16T13:37:34.716Z,4.00
2018-08-16T13:40:03.130Z,4.00
2018-08-16T13:42:32.837Z,3.90
2018-08-16T13:45:01.157Z,3.60
2018-08-16T13:47:29.441Z,4.37
2018-08-16T13:49:57.813Z,4.20
2018-08-16T13:52:26.433Z,3.50
2018-08-16T13:54:54.880Z,4.10
2018-08-16T13:57:23.291Z,3.83
2018-08-16T13:59:51.851Z,4.00
2018-08-16T14:02:21.595Z,4.20
2018-08-16T14:04:49.974Z,3.93
2018-08-16T14:07:19.196Z,5.20
2018-08-16T14:09:48.068Z,5.83
2018-08-16T14:12:16.790Z,4.43
2018-08-16T14:14:45.281Z,4.10
2018-08-16T14:17:13.958Z,4.30
2018-08-16T14:19:42.515Z,4.07
2018-08-16T14:22:11.720Z,4.40
2018-08-16T14:24:40.233Z,4.40
2018-08-16T14:27:08.721Z,4.27
2018-08-16T14:29:37.245Z,4.10
2018-08-16T14:32:05.612Z,6.00
2018-08-16T14:34:34.073Z,5.60
2018-08-16T14:37:02.987Z,4.57
2018-08-16T14:39:31.470Z,4.10
2018-08-16T14:42:00.371Z,3.98
2018-08-16T14:44:29.466Z,4.00
2018-08-16T14:46:57.671Z,4.20
2018-08-16T14:49:26.212Z,5.53
2018-08-16T14:51:54.854Z,6.33
2018-08-16T14:54:29.645Z,6.57
2018-08-16T14:56:58.322Z,5.60
2018-08-16T14:59:26.684Z,4.47
2018-08-16T15:01:55.224Z,4.20
2018-08-16T15:04:24.240Z,4.62
2018-08-16T15:06:52.550Z,3.98
2018-08-16T15:09:20.779Z,4.00
2018-08-16T15:11:49.156Z,4.17
2018-08-16T15:14:17.908Z,4.85
2018-08-16T15:16:46.223Z,5.22
2018-08-16T15:19:14.699Z,4.60
2018-08-16T15:21:43.136Z,5.20
2018-08-16T15:24:11.650Z,5.37
2018-08-16T15:26:40.082Z,4.15
2018-08-16T15:29:08.562Z,4.60
2018-08-16T15:31:36.940Z,4.97
2018-08-16T15:34:05.439Z,4.60
2018-08-16T15:36:34.421Z,4.43
2018-08-16T15:39:02.765Z,5.80
2018-08-16T15:41:31.087Z,4.50
2018-08-16T15:44:00.349Z,4.50
2018-08-16T15:46:28.806Z,4.23
2018-08-16T15:48:57.306Z,4.67
2018-08-16T15:51:25.803Z,6.00
2018-08-16T15:53:54.210Z,5.43
2018-08-16T15:56:23.061Z,5.03
2018-08-16T15:58:51.336Z,4.87
2018-08-16T16:01:19.938Z,4.40
2018-08-16T16:03:48.732Z,5.07
2018-08-16T16:06:17.269Z,4.80
2018-08-16T16:08:45.693Z,9.15
2018-08-16T16:11:14.168Z,7.08
2018-08-16T16:13:43.104Z,7.10
2018-08-16T16:16:11.552Z,5.80
2018-08-16T16:18:40.202Z,5.87
2018-08-16T16:21:08.956Z,5.63
2018-08-16T16:23:37.538Z,6.30
2018-08-16T16:26:06.296Z,5.90
2018-08-16T16:28:34.632Z,5.40
2018-08-16T16:31:03.796Z,5.67
2018-08-16T16:33:32.882Z,7.47
2018-08-16T16:36:01.530Z,7.97
2018-08-16T16:38:29.998Z,5.90
2018-08-16T16:40:58.485Z,6.93
2018-08-16T16:43:27.434Z,8.00
2018-08-16T16:45:56.002Z,5.40
2018-08-16T16:48:24.406Z,7.17
2018-08-16T16:50:52.746Z,8.57
2018-08-16T16:53:21.296Z,5.70
2018-08-16T16:55:49.964Z,5.50
2018-08-16T16:58:18.568Z,6.90
2018-08-16T17:00:47.006Z,7.37
2018-08-16T17:03:15.662Z,5.87
2018-08-16T17:05:44.207Z,5.70
2018-08-16T17:08:12.745Z,5.60
2018-08-16T17:10:41.109Z,5.33
2018-08-16T17:13:09.727Z,5.70
2018-08-16T17:15:38.203Z,5.60
2018-08-16T17:18:07.474Z,5.10
2018-08-16T17:20:35.886Z,6.00
2018-08-16T17:23:04.664Z,5.80
2018-08-16T17:25:34.071Z,5.47
2018-08-16T17:28:03.138Z,7.30
2018-08-16T17:30:32.350Z,6.80
2018-08-16T17:33:00.757Z,6.57
2018-08-16T17:35:29.365Z,5.83
2018-08-16T17:37:58.213Z,6.00
2018-08-16T17:40:27.473Z,5.70
2018-08-16T17:42:56.496Z,6.47
2018-08-16T17:45:24.825Z,5.13
2018-08-16T17:47:54.115Z,6.67
2018-08-16T17:50:23.091Z,5.13
2018-08-16T17:52:51.515Z,6.40
2018-08-16T17:55:20.118Z,6.97
2018-08-16T17:57:48.524Z,9.23
2018-08-16T18:00:17.269Z,6.90
2018-08-16T18:02:45.703Z,7.40
2018-08-16T18:05:14.043Z,6.07
2018-08-16T18:07:42.430Z,7.00
2018-08-16T18:10:10.840Z,5.70
2018-08-16T18:12:39.283Z,7.13
2018-08-16T18:15:10.058Z,6.70
2018-08-16T18:17:38.633Z,12.57
2018-08-16T18:20:07.113Z,8.33
2018-08-16T18:22:36.106Z,7.40
2018-08-16T18:25:05.263Z,10.60
2018-08-16T18:27:33.598Z,7.73
2018-08-16T18:30:02.249Z,8.83
2018-08-16T18:32:30.626Z,9.83
2018-08-16T18:34:58.961Z,5.87
2018-08-16T18:37:27.711Z,7.90
2018-08-16T18:39:56.187Z,5.90
2018-08-16T18:42:24.800Z,5.87
2018-08-16T18:44:54.211Z,6.20
2018-08-16T18:47:22.735Z,5.90
2018-08-16T18:49:51.334Z,8.83
2018-08-16T18:52:19.879Z,8.53
2018-08-16T18:54:48.932Z,7.10
2018-08-16T18:57:17.594Z,7.13
2018-08-16T18:59:46.112Z,6.83
2018-08-16T19:02:14.504Z,5.47
2018-08-16T19:04:43.632Z,6.10
2018-08-16T19:07:12.050Z,5.23
2018-08-16T19:09:40.331Z,6.47
2018-08-16T19:12:09.050Z,6.00
2018-08-16T19:14:37.363Z,6.00
2018-08-16T19:17:05.677Z,8.47
2018-08-16T19:19:34.691Z,13.23
2018-08-16T19:22:03.055Z,10.93
2018-08-16T19:24:31.500Z,6.50
2018-08-16T19:26:59.759Z,5.37
2018-08-16T19:29:28.166Z,5.80
2018-08-16T19:31:57.874Z,7.97
2018-08-16T19:34:26.077Z,8.70
2018-08-16T19:36:54.467Z,7.80
2018-08-16T19:39:22.848Z,8.13
2018-08-16T19:41:51.156Z,6.63
2018-08-16T19:44:19.460Z,5.73
2018-08-16T19:46:47.889Z,11.63
2018-08-16T19:49:16.313Z,17.10
2018-08-16T19:51:44.960Z,10.97
2018-08-16T19:54:14.242Z,5.80
2018-08-16T19:56:43.486Z,9.03
2018-08-16T19:59:11.806Z,8.70
2018-08-16T20:01:40.209Z,8.70
2018-08-16T20:04:08.529Z,6.87
2018-08-16T20:06:37.144Z,17.33
2018-08-16T20:09:08.389Z,37.47
2018-08-16T20:11:37.153Z,19.00
2018-08-16T20:14:05.725Z,31.00
2018-08-16T20:16:34.441Z,11.53
2018-08-16T20:19:09.601Z,17.73
2018-08-16T20:21:38.078Z,29.53
2018-08-16T20:24:06.677Z,17.53
2018-08-16T20:26:35.233Z,11.03
2018-08-16T20:29:03.638Z,9.20
2018-08-16T20:31:32.426Z,10.97
2018-08-16T20:34:01.295Z,8.07
2018-08-16T20:36:29.837Z,7.47
2018-08-16T20:38:59.121Z,17.07
2018-08-16T20:41:28.486Z,17.80
2018-08-16T20:43:57.308Z,13.10
2018-08-16T20:46:26.280Z,27.90
2018-08-16T20:48:54.817Z,11.47
2018-08-16T20:51:26.110Z,22.53
2018-08-16T20:53:54.673Z,11.17
2018-08-16T20:56:23.171Z,8.03
2018-08-16T20:58:51.499Z,7.60
2018-08-16T21:01:20.216Z,6.70
2018-08-16T21:03:48.809Z,5.60
2018-08-16T21:06:17.598Z,5.37
2018-08-16T21:08:47.928Z,6.20
2018-08-16T21:11:16.242Z,6.10
2018-08-16T21:13:45.554Z,11.13
2018-08-16T21:16:13.884Z,19.00
2018-08-16T21:18:42.162Z,21.40
2018-08-16T21:21:10.899Z,21.23
2018-08-16T21:23:39.372Z,20.17
2018-08-16T21:26:07.863Z,19.10
2018-08-16T21:28:36.153Z,10.50
2018-08-16T21:31:05.175Z,7.27
2018-08-16T21:33:33.548Z,7.47
2018-08-16T21:36:01.801Z,7.80
2018-08-16T21:38:30.456Z,7.47
2018-08-16T21:40:59.006Z,5.70
2018-08-16T21:43:27.245Z,8.63
2018-08-16T21:45:55.687Z,21.30
2018-08-16T21:48:24.098Z,32.40
2018-08-16T21:50:52.352Z,23.23
2018-08-16T21:53:21.276Z,14.87
2018-08-16T21:55:49.599Z,13.23
2018-08-16T21:58:18.029Z,10.93
2018-08-16T22:00:50.142Z,15.67
2018-08-16T22:03:20.680Z,10.37
2018-08-16T22:05:59.344Z,9.20
2018-08-16T22:08:46.579Z,8.97
2018-08-16T22:11:15.056Z,8.77
2018-08-16T22:13:43.622Z,7.70
2018-08-16T22:16:12.252Z,7.43
2018-08-16T22:18:40.554Z,6.43
2018-08-16T22:21:09.341Z,6.10
2018-08-16T22:23:37.713Z,7.20
2018-08-16T22:26:06.145Z,6.83
2018-08-16T22:28:34.429Z,6.93
2018-08-16T22:31:02.718Z,6.20
2018-08-16T22:33:31.451Z,6.37
2018-08-16T22:35:59.796Z,6.10
2018-08-16T22:38:28.018Z,5.27
2018-08-16T22:40:56.403Z,6.23
2018-08-16T22:43:24.662Z,6.03
2018-08-16T22:45:53.029Z,5.43
2018-08-16T22:48:24.144Z,6.27
2018-08-16T22:50:52.392Z,5.30
2018-08-16T22:53:20.726Z,5.20
2018-08-16T22:55:49.235Z,5.40
2018-08-16T22:58:17.456Z,5.00
2018-08-16T23:00:45.688Z,5.70
2018-08-16T23:03:13.906Z,5.57
2018-08-16T23:05:42.156Z,5.40
2018-08-16T23:08:10.527Z,5.60
2018-08-16T23:10:38.885Z,9.87
2018-08-16T23:13:07.301Z,14.30
2018-08-16T23:15:36.003Z,15.10
2018-08-16T23:18:04.233Z,8.80
2018-08-16T23:20:32.640Z,7.63
2018-08-16T23:23:00.911Z,7.20
2018-08-16T23:25:29.158Z,5.93
2018-08-16T23:27:57.457Z,6.50
2018-08-16T23:30:25.785Z,5.93
2018-08-16T23:32:53.989Z,5.57
2018-08-16T23:35:22.232Z,5.80
2018-08-16T23:37:50.567Z,4.77
2018-08-16T23:40:18.948Z,6.13
2018-08-16T23:42:47.217Z,5.63
2018-08-16T23:45:15.555Z,5.20
2018-08-16T23:47:53.888Z,5.20
2018-08-16T23:50:22.303Z,4.83
2018-08-16T23:52:50.570Z,4.77
2018-08-16T23:55:18.804Z,4.83
2018-08-16T23:57:47.039Z,4.93
